Hauptseite
METAR-TAF:

METAR-TAF

Flughäfen :

Flughafen Saint-Yan

Saint-Yan, Frankreich

Breite: 46-24-45N, Länge: 004-00-48E, Höhe: 244 m

Beobachtung

Neuester Wetterbericht von vor 23 Minuten, um 18:00 UTC
Wind 5 kt aus Ost, variierte zwischen Ost/Nordost und Ost/Südost
Temperatur 32°C
Luftfeuchtigkeit 21%
Luftdruck 1017 hPa
Sichtweite 10 km oder mehr
keine Wolken unter 1500 m und keine Kumulonimbus oder Gewitterwolken

METAR: LFLN 061800Z AUTO 09005KT 060V120 CAVOK 32/07 Q1017 NOSIG

Zeit: 20:23 (18:23 UTC)

Prognose

Neuester Wetterbericht von vor 1 Stunde und 23 Minuten, um 17:00 UTC
Gültige Prognose vom 06 um 18 UTC bis 07 um 03 UTC
Wind 5 kt aus Ost
Sichtweite 10 km oder mehr
keine Wolken unter 1500 m und keine Kumulonimbus oder Gewitterwolken

TAF: LFLN 061700Z 0618/0703 08005KT CAVOK

Wetterbeobachtungen und Prognosen von mehr als 4000 Flughäfen (METAR und TAF Bericht).

Die verfügbaren Stationen werden durch gelbe und rote Markierungen auf der Karte dargestellt.

Führen Sie die Maus auf sie, um den Namen der Station zu sehen.

Darauf klicken, um die Beobachtung von Wetterbeobachtungen und Prognosen zu sehen.

Um die Karte zu ändern : klicken Sie auf den grünen Tasten mit einem schwarzen Kreuz Zum Vergrößern, auf den grünen Button mit einem Gedankenstrich zu verkleinern, oder auf die grünen Pfeile für benachbarte Karten.


METAR-TAF: